Time;durP1;ratioP1;P1;durP2;ratioP2;P2;SDS_P1;SDS_P2;PMS_P1;PMS_P2;Temp;Humidity;BMP_temperature;BMP_pressure;BME280_temperature;BME280_humidity;BME280_pressure;Samples;Min_cycle;Max_cycle;Signal;HPM_P1;HPM_P2
2023/12/19 00:01:48;;;;;;;42.07;16.47;;;;;;;13.83;65.38;102536.19;5049104;28;20041;-71
2023/12/19 00:04:14;;;;;;;43.90;17.13;;;;;;;13.94;64.22;102530.97;5063133;28;20413;-71
2023/12/19 00:06:40;;;;;;;44.73;17.60;;;;;;;13.42;66.10;102534.25;5050150;28;20036;-71
2023/12/19 00:09:05;;;;;;;37.47;16.17;;;;;;;13.36;68.35;102533.34;5054450;28;20295;-71
2023/12/19 00:11:31;;;;;;;51.37;18.23;;;;;;;13.92;64.42;102528.34;5048809;28;20025;-71
2023/12/19 00:13:56;;;;;;;53.97;18.23;;;;;;;13.93;63.12;102522.22;5052554;28;20075;-71
2023/12/19 00:16:22;;;;;;;46.90;18.43;;;;;;;14.04;63.43;102524.84;5027678;28;20029;-72
2023/12/19 00:18:47;;;;;;;43.80;15.83;;;;;;;14.36;62.40;102511.75;5057707;28;20043;-71
2023/12/19 00:21:13;;;;;;;41.33;15.83;;;;;;;12.99;69.31;102498.97;5047989;28;20104;-71
2023/12/19 00:23:38;;;;;;;44.07;17.87;;;;;;;13.40;67.10;102490.47;5065527;28;20032;-71
2023/12/19 00:26:05;;;;;;;43.43;17.13;;;;;;;13.76;65.82;102487.97;5063836;28;20089;-72
2023/12/19 00:28:31;;;;;;;47.37;17.63;;;;;;;13.93;64.41;102490.66;5061222;28;20466;-72
2023/12/19 00:30:57;;;;;;;42.70;17.03;;;;;;;13.72;64.27;102476.59;5049383;28;20361;-72
2023/12/19 00:33:22;;;;;;;46.47;16.47;;;;;;;13.12;68.35;102472.78;5060876;28;20086;-71
2023/12/19 00:35:48;;;;;;;43.93;15.60;;;;;;;13.05;67.80;102479.75;5067738;28;20056;-72
2023/12/19 00:38:13;;;;;;;37.87;15.27;;;;;;;13.76;66.27;102471.34;5059221;28;20058;-71
2023/12/19 00:40:39;;;;;;;38.30;15.80;;;;;;;13.79;64.97;102466.09;5047842;28;20033;-71
2023/12/19 00:43:04;;;;;;;43.70;17.30;;;;;;;13.27;67.20;102467.63;5055387;28;20500;-71
2023/12/19 00:45:29;;;;;;;46.97;16.60;;;;;;;13.80;65.09;102467.84;5068423;28;20411;-71
2023/12/19 00:47:55;;;;;;;39.50;16.03;;;;;;;13.93;63.80;102464.38;5057219;28;20024;-72
2023/12/19 00:50:20;;;;;;;36.63;15.17;;;;;;;13.84;65.52;102469.59;5064157;28;20063;-72
2023/12/19 00:52:45;;;;;;;37.93;15.53;;;;;;;13.77;65.56;102462.59;5054854;28;20481;-71
2023/12/19 00:55:11;;;;;;;37.33;15.30;;;;;;;13.61;67.06;102459.88;5056829;28;20044;-71
2023/12/19 00:57:36;;;;;;;40.63;15.53;;;;;;;13.89;65.32;102457.38;5067916;28;20123;-71
2023/12/19 01:00:02;;;;;;;42.60;15.13;;;;;;;13.24;69.78;102467.59;5049799;28;20070;-72
2023/12/19 01:02:29;;;;;;;41.97;14.93;;;;;;;13.66;66.85;102455.53;5051730;28;20032;-71
2023/12/19 01:04:57;;;;;;;40.77;16.37;;;;;;;13.89;65.64;102449.47;5061119;28;20392;-72
2023/12/19 01:07:26;;;;;;;49.33;17.53;;;;;;;14.39;64.81;102443.34;5048388;28;20392;-72
2023/12/19 01:09:52;;;;;;;42.93;17.17;;;;;;;13.56;65.97;102449.38;5048225;28;20017;-72
2023/12/19 01:12:18;;;;;;;40.27;16.73;;;;;;;13.64;68.15;102445.88;5050098;28;20047;-71
2023/12/19 01:14:44;;;;;;;50.27;19.87;;;;;;;12.97;70.84;102437.72;5042179;28;20496;-71
2023/12/19 01:17:09;;;;;;;43.13;15.53;;;;;;;13.62;69.87;102440.63;5051372;28;20017;-71
2023/12/19 01:19:35;;;;;;;43.23;16.23;;;;;;;13.70;66.52;102430.16;5051692;28;20036;-71
2023/12/19 01:22:00;;;;;;;43.53;15.37;;;;;;;13.89;66.13;102420.56;5052141;28;20096;-72
2023/12/19 01:24:26;;;;;;;47.93;16.90;;;;;;;13.87;67.29;102430.19;5051760;28;20025;-71
2023/12/19 01:26:52;;;;;;;41.87;15.60;;;;;;;13.73;67.67;102420.50;5051205;28;20029;-71
2023/12/19 01:29:18;;;;;;;44.07;16.13;;;;;;;13.48;66.69;102421.34;5050193;28;20075;-71
2023/12/19 01:31:43;;;;;;;48.90;16.50;;;;;;;13.25;69.02;102414.22;5050073;28;20460;-71
2023/12/19 01:34:09;;;;;;;46.00;16.23;;;;;;;13.52;68.57;102420.47;5055503;28;20020;-71
2023/12/19 01:36:34;;;;;;;43.73;16.17;;;;;;;12.78;70.46;102404.38;5047865;28;20425;-72
2023/12/19 01:39:00;;;;;;;48.07;17.47;;;;;;;13.65;69.27;102403.84;5059288;28;20140;-71
2023/12/19 01:41:25;;;;;;;39.50;16.60;;;;;;;13.42;69.55;102414.28;5072827;28;20013;-71
2023/12/19 01:43:57;;;;;;;40.47;14.53;;;;;;;13.63;69.35;102410.88;5065421;28;20081;-71
2023/12/19 01:46:23;;;;;;;49.28;16.63;;;;;;;13.53;68.82;102406.44;5050077;28;20543;-71
2023/12/19 01:48:48;;;;;;;36.23;14.83;;;;;;;13.19;68.91;102411.56;5053886;28;20066;-71
2023/12/19 01:51:14;;;;;;;39.23;14.37;;;;;;;14.21;65.60;102411.81;5051722;28;20028;-71
2023/12/19 01:53:44;;;;;;;41.70;14.70;;;;;;;13.94;66.66;102407.41;5052652;28;20526;-71
2023/12/19 01:56:10;;;;;;;39.07;13.90;;;;;;;13.12;69.60;102404.53;5070408;28;20432;-72
2023/12/19 01:58:37;;;;;;;36.27;15.27;;;;;;;12.85;70.90;102407.03;5066905;28;20148;-71
2023/12/19 02:01:03;;;;;;;35.80;13.90;;;;;;;13.31;71.17;102400.22;5070874;28;20384;-71
2023/12/19 02:03:28;;;;;;;30.23;13.73;;;;;;;13.51;69.70;102402.97;5054368;28;20025;-71
2023/12/19 02:05:55;;;;;;;29.17;13.17;;;;;;;12.69;73.31;102392.97;5050635;28;20036;-70
2023/12/19 02:08:21;;;;;;;34.80;15.23;;;;;;;13.49;70.85;102378.41;5049587;28;20023;-71
2023/12/19 02:10:46;;;;;;;31.43;13.87;;;;;;;13.51;69.16;102377.56;5069430;28;20038;-71
2023/12/19 02:13:12;;;;;;;34.13;14.40;;;;;;;13.71;69.59;102379.34;5060859;28;20143;-71
2023/12/19 02:15:37;;;;;;;31.53;14.27;;;;;;;13.84;68.99;102373.22;5066852;28;20047;-71
2023/12/19 02:18:21;;;;;;;34.80;14.30;;;;;;;13.16;71.94;102373.06;5054502;28;20037;-71
2023/12/19 02:20:46;;;;;;;28.33;13.07;;;;;;;13.90;69.27;102375.88;5051491;28;20486;-71
2023/12/19 02:23:13;;;;;;;35.60;14.20;;;;;;;13.87;68.24;102364.47;5050948;28;20060;-71
2023/12/19 02:25:38;;;;;;;36.67;15.23;;;;;;;14.03;68.38;102363.59;5064505;28;20498;-71
2023/12/19 02:28:04;;;;;;;36.63;14.03;;;;;;;14.36;64.44;102346.03;5061599;28;20032;-71
2023/12/19 02:30:30;;;;;;;33.23;12.67;;;;;;;14.20;66.77;102339.91;5058537;28;20123;-71
2023/12/19 02:32:55;;;;;;;32.70;13.33;;;;;;;13.92;69.18;102344.31;5046972;28;20497;-71
2023/12/19 02:35:21;;;;;;;30.37;13.23;;;;;;;13.18;71.53;102337.16;5048729;28;20098;-72
2023/12/19 02:37:47;;;;;;;34.07;12.63;;;;;;;13.71;70.63;102332.94;5049740;28;20029;-72
2023/12/19 02:40:12;;;;;;;32.33;13.90;;;;;;;13.66;70.04;102333.81;5059192;28;20038;-72
2023/12/19 02:42:42;;;;;;;26.77;12.03;;;;;;;13.31;70.68;102338.09;5070435;28;20032;-71
2023/12/19 02:45:09;;;;;;;33.67;13.40;;;;;;;13.55;70.74;102331.16;5059009;28;20416;-71
2023/12/19 02:47:34;;;;;;;32.93;12.77;;;;;;;13.45;71.34;102324.13;5029972;28;20501;-71
2023/12/19 02:50:00;;;;;;;36.27;14.80;;;;;;;14.18;67.92;102306.63;5052769;28;20098;-72
2023/12/19 02:52:26;;;;;;;32.27;13.87;;;;;;;13.52;68.96;102313.63;5069888;28;20029;-71
2023/12/19 02:54:51;;;;;;;34.60;13.67;;;;;;;13.60;72.43;102308.41;5053219;28;20393;-72
2023/12/19 02:57:16;;;;;;;39.47;14.90;;;;;;;13.42;71.63;102303.13;5069894;28;20040;-72
2023/12/19 02:59:42;;;;;;;27.73;12.50;;;;;;;14.19;67.61;102292.59;5056762;28;20136;-71
2023/12/19 03:02:07;;;;;;;33.07;13.60;;;;;;;13.08;73.46;102301.28;5055614;28;20121;-72
2023/12/19 03:04:32;;;;;;;29.67;13.83;;;;;;;13.32;73.28;102287.31;5048947;28;20036;-71
2023/12/19 03:06:58;;;;;;;31.30;12.93;;;;;;;13.35;72.60;102275.94;5067570;28;20028;-71
2023/12/19 03:09:23;;;;;;;34.27;12.83;;;;;;;13.59;71.65;102280.38;5068943;28;20043;-71
2023/12/19 03:12:04;;;;;;;34.97;13.37;;;;;;;14.32;68.79;102268.00;5052792;28;20033;-71
2023/12/19 03:14:30;;;;;;;28.77;12.63;;;;;;;14.15;69.61;102280.31;5044557;28;20032;-72
2023/12/19 03:16:55;;;;;;;30.87;12.60;;;;;;;13.61;71.19;102283.88;5069321;28;20480;-71
2023/12/19 03:19:21;;;;;;;31.23;12.03;;;;;;;13.58;71.73;102262.84;5048938;28;20041;-71
2023/12/19 03:21:46;;;;;;;25.37;11.60;;;;;;;13.33;70.89;102254.94;5060417;28;20442;-71
2023/12/19 03:24:12;;;;;;;36.90;13.47;;;;;;;13.70;71.44;102240.97;5049358;28;20424;-71
2023/12/19 03:26:37;;;;;;;24.43;11.17;;;;;;;13.59;70.69;102238.34;5063623;28;20036;-71
2023/12/19 03:29:02;;;;;;;26.33;12.33;;;;;;;13.15;71.66;102252.28;5053344;28;20033;-71
2023/12/19 03:31:28;;;;;;;30.93;12.37;;;;;;;13.55;70.07;102247.09;5055715;28;20078;-71
2023/12/19 03:33:53;;;;;;;31.17;13.13;;;;;;;13.85;70.65;102245.34;5048274;28;20029;-71
2023/12/19 03:36:18;;;;;;;32.60;13.57;;;;;;;14.01;69.91;102244.44;5057337;28;20068;-71
2023/12/19 03:38:44;;;;;;;25.67;12.30;;;;;;;14.03;69.05;102233.91;5048682;28;20493;-71
2023/12/19 03:41:09;;;;;;;30.60;14.33;;;;;;;14.00;68.07;102229.53;5041883;28;20095;-71
2023/12/19 03:43:35;;;;;;;29.77;12.30;;;;;;;13.06;71.92;102233.03;5068750;28;20024;-71
2023/12/19 03:46:02;;;;;;;32.23;12.87;;;;;;;12.90;73.76;102226.00;5064502;28;20032;-71
2023/12/19 03:48:28;;;;;;;24.57;12.20;;;;;;;13.47;72.33;102206.81;5045434;28;20497;-71
2023/12/19 03:50:54;;;;;;;29.13;12.20;;;;;;;13.80;71.28;102189.28;5035535;28;20032;-71
2023/12/19 03:53:20;;;;;;;31.73;12.73;;;;;;;13.74;71.97;102190.16;5047606;28;20551;-71
2023/12/19 03:55:45;;;;;;;30.77;12.10;;;;;;;13.62;72.42;102196.28;5048977;28;20031;-71
2023/12/19 03:58:11;;;;;;;22.30;12.57;;;;;;;13.26;71.47;102199.75;5060786;28;20025;-71
2023/12/19 04:00:37;;;;;;;35.90;13.03;;;;;;;13.57;72.67;102187.53;5047926;28;20042;-71
2023/12/19 04:03:02;;;;;;;29.47;12.53;;;;;;;13.09;73.39;102184.00;5054587;28;20506;-71
2023/12/19 04:05:28;;;;;;;30.60;12.27;;;;;;;13.33;75.49;102184.03;5049863;28;20036;-71
2023/12/19 04:07:53;;;;;;;24.90;12.13;;;;;;;13.00;73.08;102183.13;5058594;28;20021;-71
2023/12/19 04:10:18;;;;;;;29.93;13.17;;;;;;;13.66;71.21;102184.91;5047868;28;20578;-70
2023/12/19 04:12:44;;;;;;;29.37;13.63;;;;;;;13.78;71.77;102175.25;5062825;28;20214;-70
2023/12/19 04:15:09;;;;;;;28.07;11.70;;;;;;;13.32;72.33;102177.00;5049687;28;20373;-71
2023/12/19 04:17:35;;;;;;;31.43;12.73;;;;;;;14.08;71.41;102175.19;5061397;28;20032;-71
2023/12/19 04:20:00;;;;;;;31.80;12.33;;;;;;;13.61;73.16;102168.25;5068293;28;20024;-70
2023/12/19 04:22:26;;;;;;;25.07;10.97;;;;;;;13.51;72.83;102179.69;5052775;28;20036;-70
2023/12/19 04:24:51;;;;;;;29.97;11.87;;;;;;;14.06;71.86;102171.66;5028786;28;20033;-71
2023/12/19 04:27:17;;;;;;;27.17;11.93;;;;;;;13.82;71.36;102174.38;5054175;28;20491;-71
2023/12/19 04:29:45;;;;;;;26.33;11.60;;;;;;;13.52;72.13;102168.31;5045854;28;20068;-71
2023/12/19 04:32:13;;;;;;;27.73;11.00;;;;;;;13.60;72.55;102166.53;5054769;28;20032;-72
2023/12/19 04:34:38;;;;;;;25.07;11.90;;;;;;;13.46;71.65;102173.53;5047668;28;20020;-71
2023/12/19 04:37:04;;;;;;;22.43;11.13;;;;;;;14.12;69.67;102151.50;5049240;28;20541;-71
2023/12/19 04:39:29;;;;;;;22.00;10.10;;;;;;;13.72;71.57;102150.75;5049144;28;20024;-71
2023/12/19 04:41:54;;;;;;;22.97;10.20;;;;;;;13.80;70.87;102142.84;5050087;28;20028;-71
2023/12/19 04:44:20;;;;;;;20.47;9.73;;;;;;;13.42;72.98;102140.28;5045572;28;20064;-71
2023/12/19 04:46:45;;;;;;;26.87;11.20;;;;;;;13.97;70.98;102144.53;5049084;28;20572;-71
2023/12/19 04:49:10;;;;;;;22.63;10.10;;;;;;;13.47;72.69;102128.03;5051304;28;20465;-71
2023/12/19 04:51:36;;;;;;;22.10;10.17;;;;;;;13.71;72.14;102138.50;5052106;28;20102;-71
2023/12/19 04:54:03;;;;;;;23.50;9.73;;;;;;;13.29;73.60;102140.25;5063596;28;20043;-71
2023/12/19 04:56:29;;;;;;;21.40;10.43;;;;;;;13.59;72.16;102143.78;5050922;28;20546;-72
2023/12/19 04:58:54;;;;;;;26.37;11.27;;;;;;;14.15;70.64;102135.69;5049915;28;20717;-71
2023/12/19 05:01:19;;;;;;;30.70;11.80;;;;;;;13.93;72.55;102132.28;5031745;28;20544;-71
2023/12/19 05:03:45;;;;;;;26.23;11.83;;;;;;;13.29;74.96;102129.75;5065638;28;20024;-71
2023/12/19 05:06:17;;;;;;;25.33;11.70;;;;;;;13.85;72.52;102127.06;5067038;28;20551;-71
2023/12/19 05:08:42;;;;;;;27.07;12.60;;;;;;;14.41;69.14;102131.22;5052962;28;20069;-71
2023/12/19 05:11:07;;;;;;;23.67;12.77;;;;;;;14.36;68.99;102122.47;5050178;28;20382;-72
2023/12/19 05:13:33;;;;;;;25.27;12.60;;;;;;;13.85;72.07;102114.78;5065684;28;20039;-71
2023/12/19 05:16:09;;;;;;;28.57;11.93;;;;;;;13.54;75.20;102112.22;5071794;28;20051;-71
2023/12/19 05:18:36;;;;;;;23.47;11.63;;;;;;;13.42;75.17;102119.28;5054866;28;20025;-72
2023/12/19 05:21:02;;;;;;;24.33;11.27;;;;;;;14.13;72.91;102117.31;5041163;28;20052;-71
2023/12/19 05:23:27;;;;;;;24.73;11.57;;;;;;;14.71;69.84;102123.16;5064011;28;20059;-71
2023/12/19 05:25:52;;;;;;;21.70;11.33;;;;;;;14.16;71.68;102124.31;5060037;28;20047;-72
2023/12/19 05:28:18;;;;;;;0.00;0.00;;;;;;;14.78;69.43;102124.00;5051003;28;20467;-72
2023/12/19 05:30:43;;;;;;;0.17;0.17;;;;;;;14.21;71.14;102122.53;5051453;28;20520;-72
2023/12/19 05:33:09;;;;;;;0.10;0.10;;;;;;;13.37;76.46;102122.78;5061695;28;20028;-73
2023/12/19 05:35:35;;;;;;;2.53;2.33;;;;;;;13.93;74.75;102125.28;5069104;28;20032;-72
2023/12/19 05:38:01;;;;;;;0.07;0.07;;;;;;;14.25;71.20;102126.91;5057741;28;20025;-72
2023/12/19 05:40:26;;;;;;;0.57;0.50;;;;;;;13.86;74.52;102120.91;5057242;28;20017;-73
2023/12/19 05:42:56;;;;;;;0.00;0.00;;;;;;;14.22;70.80;102108.53;5039628;28;20362;-73
2023/12/19 05:45:21;;;;;;;0.77;0.77;;;;;;;14.00;73.96;102108.63;5049515;28;20041;-73
2023/12/19 05:47:47;;;;;;;0.93;0.87;;;;;;;13.55;75.42;102100.84;5056020;28;20043;-73
2023/12/19 05:50:12;;;;;;;0.23;0.23;;;;;;;13.05;77.59;102105.28;5070734;28;20036;-73
2023/12/19 05:52:38;;;;;;;0.00;0.00;;;;;;;13.27;80.49;102093.88;5067109;28;20124;-72
2023/12/19 05:55:03;;;;;;;1.53;1.23;;;;;;;13.86;75.12;102092.00;5050028;28;20036;-73
2023/12/19 05:57:29;;;;;;;0.20;0.20;;;;;;;13.51;76.91;102087.75;5052461;28;20033;-72
2023/12/19 05:59:54;;;;;;;4.23;2.47;;;;;;;13.93;73.14;102083.25;5069714;28;20028;-70
2023/12/19 06:02:21;;;;;;;0.03;0.03;;;;;;;13.89;73.48;102074.47;5051354;28;20025;-72
2023/12/19 06:04:47;;;;;;;0.00;0.00;;;;;;;14.48;72.59;102073.28;5059710;28;20355;-73
2023/12/19 06:07:13;;;;;;;0.30;0.30;;;;;;;14.48;71.75;102078.53;5039035;28;20440;-73
2023/12/19 06:09:38;;;;;;;0.00;0.00;;;;;;;13.91;74.79;102072.69;5051556;28;20029;-72
2023/12/19 06:12:05;;;;;;;1.33;1.30;;;;;;;13.75;75.27;102073.66;5031676;28;20036;-73
2023/12/19 06:14:30;;;;;;;1.27;0.87;;;;;;;14.24;72.33;102081.31;5058883;28;20028;-72
2023/12/19 06:16:56;;;;;;;0.17;0.17;;;;;;;14.64;68.75;102080.22;5065008;28;20027;-72
2023/12/19 06:19:21;;;;;;;0.20;0.20;;;;;;;14.06;72.22;102071.75;5051284;28;20035;-72
2023/12/19 06:21:46;;;;;;;0.00;0.00;;;;;;;14.05;73.53;102070.03;5030111;28;20436;-72
2023/12/19 06:24:12;;;;;;;1.10;0.63;;;;;;;13.94;74.23;102073.59;5046210;28;20112;-72
2023/12/19 06:26:37;;;;;;;0.17;0.17;;;;;;;13.19;77.97;102075.53;5041438;28;20124;-72
2023/12/19 06:29:04;;;;;;;1.67;1.60;;;;;;;13.76;75.00;102066.66;5068346;28;20032;-72
2023/12/19 06:31:29;;;;;;;3.47;1.20;;;;;;;14.23;71.47;102062.91;5049680;28;20083;-72
2023/12/19 06:33:55;;;;;;;2.40;2.30;;;;;;;14.17;73.21;102063.81;5053931;28;20028;-72
2023/12/19 06:36:28;;;;;;;0.20;0.20;;;;;;;13.93;73.54;102064.84;5057781;28;20446;-72
2023/12/19 06:38:54;;;;;;;0.40;0.40;;;;;;;14.00;72.62;102056.03;5051235;28;20033;-72
2023/12/19 06:41:19;;;;;;;0.23;0.23;;;;;;;14.34;71.50;102058.50;5065855;28;20391;-72
2023/12/19 06:43:44;;;;;;;0.10;0.10;;;;;;;13.54;75.67;102050.94;5049648;28;20040;-72
2023/12/19 06:46:16;;;;;;;0.70;0.70;;;;;;;13.96;74.86;102042.91;5064265;28;20021;-72
2023/12/19 06:48:43;;;;;;;2.15;1.90;;;;;;;13.55;74.88;102042.19;5045754;28;20048;-72
2023/12/19 06:51:08;;;;;;;0.00;0.00;;;;;;;14.35;71.94;102044.44;5063925;28;20062;-72
2023/12/19 06:53:34;;;;;;;0.80;0.80;;;;;;;14.27;73.07;102038.34;5046730;28;20025;-72
2023/12/19 06:56:03;;;;;;;0.40;0.40;;;;;;;14.35;72.33;102041.81;5064991;28;20064;-72
2023/12/19 06:58:31;;;;;;;0.77;0.77;;;;;;;13.74;73.07;102049.13;5030171;28;20029;-73
2023/12/19 07:00:56;;;;;;;0.03;0.03;;;;;;;13.93;74.33;102030.66;5045704;28;20056;-72
2023/12/19 07:03:22;;;;;;;0.27;0.27;;;;;;;13.85;75.42;102042.97;5044700;28;20064;-72
2023/12/19 07:05:47;;;;;;;0.20;0.20;;;;;;;13.70;77.73;102057.91;5049334;28;20036;-73
2023/12/19 07:08:13;;;;;;;0.00;0.00;;;;;;;13.66;77.65;102050.91;5045196;28;20123;-72
2023/12/19 07:10:38;;;;;;;0.10;0.10;;;;;;;13.96;75.03;102042.91;5060122;28;20044;-73
2023/12/19 07:13:03;;;;;;;0.43;0.43;;;;;;;13.71;75.74;102038.66;5068620;28;20032;-72
2023/12/19 07:15:29;;;;;;;0.93;0.93;;;;;;;13.47;74.61;102043.97;5058934;28;20032;-73
2023/12/19 07:17:54;;;;;;;1.27;0.37;;;;;;;14.12;74.44;102048.97;5047117;28;20056;-72
2023/12/19 07:20:20;;;;;;;0.00;0.00;;;;;;;13.81;75.67;102043.88;5058042;28;20035;-73
2023/12/19 07:22:45;;;;;;;0.37;0.37;;;;;;;13.95;74.02;102030.66;5055194;28;20370;-72
2023/12/19 07:25:10;;;;;;;3.90;1.50;;;;;;;14.21;72.86;102028.75;5041780;28;20027;-72
2023/12/19 07:27:37;;;;;;;0.97;0.60;;;;;;;13.88;72.25;102033.31;5050854;28;20055;-72
2023/12/19 07:30:04;;;;;;;1.13;1.07;;;;;;;13.99;74.01;102022.75;5053249;28;20021;-72
2023/12/19 07:32:30;;;;;;;0.93;0.80;;;;;;;14.19;72.17;102027.00;5070068;28;20036;-72
2023/12/19 07:34:55;;;;;;;0.43;0.43;;;;;;;13.65;73.98;102020.25;5060203;28;20028;-73
2023/12/19 07:37:21;;;;;;;0.77;0.77;;;;;;;13.73;74.36;102020.25;5045698;28;20040;-73
2023/12/19 07:39:46;;;;;;;0.40;0.40;;;;;;;14.64;69.09;102019.69;5030622;28;20112;-73
2023/12/19 07:42:12;;;;;;;1.87;0.90;;;;;;;14.33;70.99;102017.28;5057388;28;20025;-73
2023/12/19 07:44:38;;;;;;;0.53;0.53;;;;;;;14.24;73.09;102017.34;5049382;28;20064;-72
2023/12/19 07:47:04;;;;;;;0.73;0.73;;;;;;;13.60;73.72;102019.44;5050396;28;20025;-72
2023/12/19 07:49:29;;;;;;;0.00;0.00;;;;;;;13.78;73.08;102013.22;5065007;28;20033;-73
2023/12/19 07:51:54;;;;;;;0.40;0.40;;;;;;;13.47;74.48;102030.84;5065079;28;20487;-73
2023/12/19 07:54:20;;;;;;;4.50;1.27;;;;;;;14.01;72.70;102023.63;5054072;28;20032;-72
2023/12/19 07:56:45;;;;;;;1.30;1.20;;;;;;;14.21;72.48;102022.63;5048490;28;20022;-73
2023/12/19 07:59:10;;;;;;;0.00;0.00;;;;;;;13.60;77.09;102014.16;5047513;28;20025;-72
2023/12/19 08:01:36;;;;;;;0.13;0.13;;;;;;;13.91;74.39;102014.03;5060010;28;20056;-73
2023/12/19 08:04:01;;;;;;;0.00;0.00;;;;;;;13.84;74.41;102017.56;5068421;28;20029;-73
2023/12/19 08:06:27;;;;;;;2.47;1.67;;;;;;;14.19;72.63;102005.97;5060369;28;20876;-73
2023/12/19 08:08:52;;;;;;;1.27;1.20;;;;;;;13.76;73.26;102008.84;5048965;28;20017;-73
2023/12/19 08:11:18;;;;;;;0.60;0.60;;;;;;;13.93;73.97;102009.66;5054172;28;20029;-73
2023/12/19 08:13:44;;;;;;;2.20;1.67;;;;;;;13.96;72.18;102012.25;5068073;28;20032;-73
2023/12/19 08:16:10;;;;;;;0.20;0.20;;;;;;;14.46;72.87;102001.41;5065774;28;20027;-73
2023/12/19 08:18:36;;;;;;;0.00;0.00;;;;;;;14.65;72.16;102000.41;5049631;28;20040;-73
2023/12/19 08:21:05;;;;;;;1.03;1.03;;;;;;;14.17;73.88;102005.13;5049706;28;20059;-73
2023/12/19 08:23:31;;;;;;;0.77;0.77;;;;;;;14.01;73.97;101997.34;5074149;28;20048;-73
2023/12/19 08:25:56;;;;;;;0.30;0.30;;;;;;;13.70;75.89;102005.34;5072852;28;20483;-73
2023/12/19 08:28:22;;;;;;;0.00;0.00;;;;;;;13.84;75.39;101991.28;5052681;28;20033;-73
2023/12/19 08:30:47;;;;;;;0.30;0.30;;;;;;;13.94;75.09;102006.09;5034214;28;20041;-73
2023/12/19 08:33:13;;;;;;;0.70;0.70;;;;;;;13.83;75.94;102000.03;5048641;28;20033;-73
2023/12/19 08:35:39;;;;;;;0.33;0.30;;;;;;;13.98;75.43;101989.44;5068372;28;20477;-72
2023/12/19 08:38:05;;;;;;;0.10;0.10;;;;;;;13.78;74.73;101993.94;5046486;28;20079;-72
2023/12/19 08:40:30;;;;;;;0.00;0.00;;;;;;;14.21;74.23;101991.06;5033209;28;20029;-72
2023/12/19 08:42:56;;;;;;;1.30;1.20;;;;;;;14.95;71.57;101979.97;5068912;28;20028;-72
2023/12/19 08:45:26;;;;;;;2.47;1.07;;;;;;;14.41;72.65;101973.38;5068391;28;20099;-72
2023/12/19 08:47:53;;;;;;;0.30;0.30;;;;;;;14.31;71.67;101979.59;5080471;28;20070;-73
2023/12/19 08:50:18;;;;;;;0.00;0.00;;;;;;;14.33;72.79;101976.94;5072683;28;20059;-72
2023/12/19 08:52:44;;;;;;;0.27;0.27;;;;;;;14.49;70.73;101969.81;5063225;28;20025;-73
2023/12/19 08:55:11;;;;;;;0.00;0.00;;;;;;;14.13;74.91;101971.84;5061521;28;20381;-72
2023/12/19 08:57:44;;;;;;;0.37;0.37;;;;;;;14.59;73.75;101966.22;5052017;28;20029;-72
2023/12/19 09:00:12;;;;;;;0.63;0.63;;;;;;;14.54;72.73;101970.66;5052258;28;20029;-72
2023/12/19 09:02:42;;;;;;;0.00;0.00;;;;;;;14.64;73.32;101969.69;5060589;28;20025;-73
2023/12/19 09:05:10;;;;;;;0.20;0.20;;;;;;;14.40;72.52;101955.00;5071176;28;20032;-73
2023/12/19 09:07:36;;;;;;;0.83;0.83;;;;;;;14.56;72.16;101961.88;5060851;28;20115;-72
2023/12/19 09:10:02;;;;;;;0.10;0.10;;;;;;;14.80;72.49;101959.06;5063521;28;20116;-71
2023/12/19 09:12:27;;;;;;;0.00;0.00;;;;;;;14.35;75.03;101962.03;5059061;28;20525;-72
2023/12/19 09:14:52;;;;;;;1.50;0.43;;;;;;;14.36;71.28;101959.38;5071934;28;20444;-72
2023/12/19 09:17:18;;;;;;;1.60;0.30;;;;;;;14.95;69.82;101963.28;5066138;28;20435;-72
2023/12/19 09:19:44;;;;;;;0.07;0.07;;;;;;;14.36;73.17;101954.13;5047804;28;20036;-72
2023/12/19 09:22:10;;;;;;;0.30;0.30;;;;;;;14.36;73.41;101954.13;5039961;28;20043;-72
2023/12/19 09:24:35;;;;;;;0.50;0.40;;;;;;;14.63;72.97;101941.66;5070954;28;20476;-72
2023/12/19 09:27:02;;;;;;;1.90;1.23;;;;;;;14.49;73.82;101948.75;5070365;28;20035;-72
2023/12/19 09:29:27;;;;;;;0.47;0.47;;;;;;;15.19;70.88;101941.06;5051487;28;20040;-72
2023/12/19 09:31:54;;;;;;;0.00;0.00;;;;;;;13.80;76.25;101937.84;5049721;28;20508;-72
2023/12/19 09:34:19;;;;;;;0.00;0.00;;;;;;;14.16;73.69;101929.75;5071104;28;20455;-72
2023/12/19 09:36:45;;;;;;;0.10;0.10;;;;;;;13.80;76.30;101926.50;5060008;28;20036;-71
2023/12/19 09:39:14;;;;;;;1.10;0.30;;;;;;;14.34;75.36;101934.88;5068808;28;20031;-72
2023/12/19 09:41:44;;;;;;;0.97;0.90;;;;;;;14.95;72.29;101935.22;5066274;28;20024;-72
2023/12/19 09:44:10;;;;;;;1.73;0.80;;;;;;;14.48;74.57;101923.34;5068923;28;20045;-72
2023/12/19 09:46:36;;;;;;;0.00;0.00;;;;;;;14.74;73.81;101924.00;5072689;28;20032;-72
2023/12/19 09:49:02;;;;;;;0.10;0.10;;;;;;;14.96;72.04;101923.78;5054720;28;20033;-72
2023/12/19 09:51:30;;;;;;;0.00;0.00;;;;;;;14.97;72.31;101925.50;5051728;28;20135;-72
2023/12/19 09:53:56;;;;;;;1.37;1.27;;;;;;;15.30;68.37;101911.97;5080658;28;20031;-72
2023/12/19 09:56:25;;;;;;;0.10;0.10;;;;;;;14.61;73.13;101917.09;5061927;28;20029;-72
2023/12/19 09:58:51;;;;;;;0.20;0.20;;;;;;;14.56;72.36;101918.88;5059501;28;20024;-72
2023/12/19 10:01:19;;;;;;;0.50;0.50;;;;;;;15.08;70.04;101915.75;5070575;28;20025;-72
2023/12/19 10:03:45;;;;;;;1.40;1.00;;;;;;;14.65;72.26;101913.56;5062798;28;20025;-72
2023/12/19 10:06:11;;;;;;;1.33;1.23;;;;;;;14.11;74.68;101923.63;5049380;28;20043;-72
2023/12/19 10:08:43;;;;;;;0.27;0.27;;;;;;;14.81;71.96;101918.66;5050470;28;20024;-72
2023/12/19 10:11:14;;;;;;;0.10;0.10;;;;;;;14.79;71.55;101912.56;5050305;28;20108;-72
2023/12/19 10:13:40;;;;;;;0.10;0.10;;;;;;;14.90;70.73;101914.19;5053723;28;20046;-71
2023/12/19 10:16:07;;;;;;;0.10;0.10;;;;;;;14.53;73.92;101904.00;5047735;28;20388;-72
2023/12/19 10:18:33;;;;;;;0.10;0.10;;;;;;;14.89;72.67;101907.19;5050775;28;20112;-72
2023/12/19 10:21:19;;;;;;;0.00;0.00;;;;;;;14.98;71.76;101895.69;5051178;28;20028;-72
2023/12/19 10:23:45;;;;;;;0.23;0.23;;;;;;;14.24;72.53;101891.13;5072777;28;20066;-72
2023/12/19 10:26:10;;;;;;;0.87;0.87;;;;;;;15.33;68.74;101880.31;5045975;28;20099;-72
2023/12/19 10:28:37;;;;;;;0.20;0.20;;;;;;;14.13;75.18;101887.72;5041829;28;20040;-72
2023/12/19 10:31:06;;;;;;;0.97;0.97;;;;;;;14.54;73.99;101868.91;5050529;28;20037;-72
2023/12/19 10:33:45;;;;;;;0.63;0.63;;;;;;;14.78;70.48;101876.59;5052555;28;20037;-71
2023/12/19 10:36:30;;;;;;;0.20;0.20;;;;;;;15.00;71.83;101878.13;5071252;28;20434;-72
2023/12/19 10:39:01;;;;;;;0.00;0.00;;;;;;;15.31;69.14;101861.91;5063540;28;20032;-71
2023/12/19 10:41:28;;;;;;;0.00;0.00;;;;;;;14.28;72.68;101861.28;5066451;28;20448;-72
2023/12/19 10:43:57;;;;;;;0.60;0.60;;;;;;;14.94;71.29;101851.84;5070064;28;20506;-72
2023/12/19 10:46:24;;;;;;;0.07;0.07;;;;;;;14.62;73.79;101850.44;5064077;28;20044;-71
2023/12/19 10:48:54;;;;;;;0.00;0.00;;;;;;;14.60;73.03;101846.94;5054109;28;20028;-72
2023/12/19 10:51:42;;;;;;;0.00;0.00;;;;;;;15.28;70.45;101835.63;5069520;28;20402;-72
2023/12/19 10:54:13;;;;;;;0.00;0.00;;;;;;;14.40;74.71;101840.13;5063249;28;20052;-72
2023/12/19 10:57:15;;;;;;;0.00;0.00;;;;;;;14.35;73.88;101830.53;5050155;28;20491;-72
2023/12/19 10:59:47;;;;;;;0.00;0.00;;;;;;;14.39;74.39;101826.97;5048111;28;20462;-72
2023/12/19 11:02:35;;;;;;;0.20;0.20;;;;;;;14.54;74.68;101820.69;5048366;28;20053;-72
2023/12/19 11:05:11;;;;;;;0.00;0.00;;;;;;;14.05;74.73;101812.41;5043616;28;20059;-72
2023/12/19 11:07:37;;;;;;;0.50;0.50;;;;;;;15.01;70.40;101786.81;5048238;28;20036;-72
2023/12/19 11:10:05;;;;;;;0.07;0.07;;;;;;;15.70;68.13;101796.38;5048193;28;20392;-72
2023/12/19 11:12:32;;;;;;;0.13;0.13;;;;;;;14.20;72.63;101795.59;5049551;28;20044;-73
2023/12/19 11:14:57;;;;;;;0.00;0.00;;;;;;;15.13;69.02;101785.81;5061802;28;20032;-72